Portada
METAR-TAF:

METAR-TAF

Aeroports :

Aeroport Internacional de Kansai

Kansai, Japó

latitud: 34-25N, longitud: 135-15E, altitud: 5 m

Observació

L'informe es va fer fa 29 minuts, a les 15:30 UTC
Vent 6 kt del Est/Nord-Est
Temperatura 25°C
Humitat 69%
Pressió 1013 hPa
Visibilitat 10 km o més

METAR: RJBB 251530Z AUTO 06006KT 9999 NCD 25/19 Q1013 NOSIG

Hora: 00:59 (15:59 UTC)

Pronòstic

L'informe es va fer fa 4 hores i 51 minuts, a les 11:08 UTC
Pronòstic vàlid del 25 a les 12 UTC al 26 a les 18 UTC
Vent 6 kt del Est/Nord-Est
Visibilitat 10 km o més
Escasses núvols a una alçada de 2500 ft
Evolucionant progressivament
l' 26 a les 03 UTC al 26 a les 06 UTC
Vent 7 kt del Oest
Evolucionant progressivament
l' 26 a les 09 UTC al 26 a les 12 UTC
Vent 10 kt del Nord-Est

TAF: RJBB 251108Z 2512/2618 07006KT 9999 FEW025 BECMG 2603/2606 28007KT BECMG 2609/2612 05010KT

Observacions i pronòstics meteorològics de més de 4000 aeroports (METAR i TAF).

Les estacions disponibles són els punts grocs i vermells al mapa.

Posi el ratolí al punt desitjat per veure el nom de l'estació.

Feu clic per veure les observacions i els pronòstics meteorològics.

Per canviar el mapa: feu clic els botons verds amb una creu de color negre per apropar; al botó verd amb un guió per allunyar la imatge; o en les fletxes verdes per a mapes adjacents.


METAR-TAF: